Time;durP1;ratioP1;P1;durP2;ratioP2;P2;SDS_P1;SDS_P2;PMS_P1;PMS_P2;Temp;Humidity;BMP_temperature;BMP_pressure;BME280_temperature;BME280_humidity;BME280_pressure;Samples;Min_cycle;Max_cycle;Signal;HPM_P1;HPM_P2
2022/09/11 00:00:37;;;;;;;0.10;0.10;;;;;;;12.81;100.00;101626.47;5059673;28;20583;-70
2022/09/11 00:03:02;;;;;;;0.10;0.10;;;;;;;12.95;100.00;101643.41;5066457;28;20048;-70
2022/09/11 00:05:29;;;;;;;0.10;0.10;;;;;;;13.17;100.00;101665.06;5063413;28;20016;-70
2022/09/11 00:07:55;;;;;;;0.00;0.00;;;;;;;13.00;100.00;101630.47;5058081;28;20131;-71
2022/09/11 00:10:21;;;;;;;0.00;0.00;;;;;;;13.30;100.00;101669.56;5052845;28;20119;-70
2022/09/11 00:12:48;;;;;;;0.10;0.10;;;;;;;13.36;100.00;101658.31;5054197;28;20036;-70
2022/09/11 00:15:13;;;;;;;0.10;0.10;;;;;;;13.34;100.00;101652.16;5064534;28;20068;-70
2022/09/11 00:17:39;;;;;;;0.10;0.10;;;;;;;13.36;100.00;101636.72;5061610;28;20169;-70
2022/09/11 00:20:04;;;;;;;0.10;0.10;;;;;;;13.45;100.00;101654.06;5057026;28;20203;-70
2022/09/11 00:22:30;;;;;;;0.10;0.10;;;;;;;13.30;100.00;101631.78;5057236;28;20029;-70
2022/09/11 00:24:57;;;;;;;0.00;0.00;;;;;;;13.56;100.00;101674.81;5055349;28;20670;-70
2022/09/11 00:27:23;;;;;;;0.00;0.00;;;;;;;13.40;100.00;101648.13;5062323;28;20048;-70
2022/09/11 00:29:48;;;;;;;0.10;0.10;;;;;;;13.56;100.00;101672.97;5061510;28;20467;-70
2022/09/11 00:32:14;;;;;;;0.10;0.10;;;;;;;13.42;100.00;101654.28;5058601;28;20737;-70
2022/09/11 00:34:40;;;;;;;0.30;0.30;;;;;;;13.38;100.00;101666.25;5052812;28;20051;-70
2022/09/11 00:37:05;;;;;;;0.00;0.00;;;;;;;13.12;100.00;101643.00;5056359;28;20177;-70
2022/09/11 00:39:31;;;;;;;0.38;0.38;;;;;;;13.28;100.00;101675.03;5055342;28;20521;-70
2022/09/11 00:41:57;;;;;;;0.10;0.10;;;;;;;13.20;100.00;101678.34;5054595;28;20029;-70
2022/09/11 00:44:27;;;;;;;0.40;0.40;;;;;;;13.15;100.00;101680.50;5053431;28;20635;-70
2022/09/11 00:47:07;;;;;;;0.10;0.10;;;;;;;13.09;100.00;101677.41;5053481;28;20066;-70
2022/09/11 00:49:35;;;;;;;0.73;0.73;;;;;;;12.79;100.00;101646.41;5054212;28;20024;-70
2022/09/11 00:52:17;;;;;;;0.10;0.10;;;;;;;12.89;100.00;101682.47;5035544;28;20067;-70
2022/09/11 00:54:45;;;;;;;0.20;0.20;;;;;;;12.87;100.00;101689.81;5042605;28;20020;-70
2022/09/11 00:57:10;;;;;;;0.90;0.90;;;;;;;12.72;100.00;101671.09;5052344;28;20021;-70
2022/09/11 00:59:39;;;;;;;0.13;0.13;;;;;;;12.66;100.00;101666.19;5053519;28;20060;-70
2022/09/11 01:02:04;;;;;;;0.47;0.47;;;;;;;12.58;100.00;101664.03;5053930;28;20029;-70
2022/09/11 01:04:30;;;;;;;0.30;0.30;;;;;;;12.53;100.00;101663.53;5050847;28;20448;-70
2022/09/11 01:06:57;;;;;;;0.10;0.10;;;;;;;12.42;100.00;101656.22;5056030;28;20064;-70
2022/09/11 01:09:26;;;;;;;0.10;0.10;;;;;;;12.54;100.00;101692.19;5058871;28;20117;-70
2022/09/11 01:12:43;;;;;;;2.30;2.10;;;;;;;12.20;100.00;101650.66;5059841;28;20363;-70
2022/09/11 01:15:17;;;;;;;0.20;0.20;;;;;;;12.26;100.00;101669.94;5032865;28;20040;-70
2022/09/11 01:17:54;;;;;;;0.30;0.30;;;;;;;12.36;100.00;101683.59;5052566;28;20628;-70
2022/09/11 01:21:04;;;;;;;0.90;0.90;;;;;;;12.25;100.00;101672.72;5056237;28;20117;-70
2022/09/11 01:24:08;;;;;;;0.10;0.10;;;;;;;12.30;100.00;101686.72;5062111;28;20033;-70
2022/09/11 01:26:55;;;;;;;0.13;0.13;;;;;;;12.22;100.00;101684.59;5066524;28;20103;-70
2022/09/11 01:29:25;;;;;;;0.10;0.10;;;;;;;12.06;100.00;101662.41;5060014;28;20044;-71
2022/09/11 01:32:23;;;;;;;0.70;0.70;;;;;;;12.14;100.00;101692.34;5057645;28;20021;-70
2022/09/11 01:34:56;;;;;;;0.20;0.20;;;;;;;11.83;100.00;101637.97;5058787;28;20044;-70
2022/09/11 01:37:27;;;;;;;1.65;1.55;;;;;;;12.06;100.00;101687.50;5056325;28;20032;-70
2022/09/11 01:39:59;;;;;;;1.30;1.20;;;;;;;12.00;100.00;101687.94;5057648;28;20037;-70
2022/09/11 01:42:26;;;;;;;0.40;0.40;;;;;;;11.97;100.00;101678.22;5042522;28;20131;-70
2022/09/11 01:44:54;;;;;;;0.95;0.95;;;;;;;11.98;100.00;101685.34;5055356;28;20036;-70
2022/09/11 01:47:20;;;;;;;0.30;0.30;;;;;;;11.93;100.00;101682.09;5059424;28;20075;-76
2022/09/11 01:50:06;;;;;;;0.30;0.30;;;;;;;12.01;100.00;101703.13;5052484;28;20040;-72
2022/09/11 01:52:39;;;;;;;0.88;0.88;;;;;;;11.95;100.00;101704.38;5050216;28;20468;-70
2022/09/11 01:55:20;;;;;;;0.40;0.40;;;;;;;12.02;100.00;101710.22;5055547;28;20075;-70
2022/09/11 01:57:50;;;;;;;0.10;0.10;;;;;;;12.00;100.00;101713.03;5055180;28;20171;-70
2022/09/11 02:00:16;;;;;;;0.60;0.60;;;;;;;11.73;100.00;101677.25;5056702;28;20028;-70
2022/09/11 02:02:45;;;;;;;0.30;0.20;;;;;;;11.84;100.00;101696.19;5058062;28;20032;-70
2022/09/11 02:05:28;;;;;;;0.80;0.80;;;;;;;11.76;100.00;101701.25;5064132;28;20063;-70
2022/09/11 02:07:58;;;;;;;0.70;0.70;;;;;;;11.65;100.00;101699.31;5040454;28;20511;-70
2022/09/11 02:10:30;;;;;;;1.15;1.08;;;;;;;11.45;100.00;101681.84;5058685;28;20036;-70
2022/09/11 02:13:02;;;;;;;0.28;0.28;;;;;;;11.63;100.00;101730.84;5039614;28;20674;-71
2022/09/11 02:15:34;;;;;;;0.43;0.43;;;;;;;11.58;100.00;101735.66;5067346;28;20158;-70
2022/09/11 02:18:13;;;;;;;0.40;0.40;;;;;;;11.50;100.00;101731.66;5058484;28;20067;-71
2022/09/11 02:20:38;;;;;;;1.50;1.40;;;;;;;11.55;100.00;101723.25;5059726;28;20036;-71
2022/09/11 02:23:05;;;;;;;0.30;0.30;;;;;;;11.30;100.00;101681.06;5058998;28;20028;-71
2022/09/11 02:25:31;;;;;;;0.10;0.10;;;;;;;11.36;100.00;101691.41;5058124;28;20151;-71
2022/09/11 02:27:57;;;;;;;0.95;0.95;;;;;;;11.50;100.00;101728.13;5063522;28;20029;-71
2022/09/11 02:30:23;;;;;;;0.10;0.10;;;;;;;11.35;100.00;101709.34;5046111;28;20032;-70
2022/09/11 02:32:48;;;;;;;1.25;1.17;;;;;;;11.43;100.00;101729.50;5059822;28;20421;-71
2022/09/11 02:35:15;;;;;;;0.30;0.28;;;;;;;11.30;100.00;101705.25;5057508;28;20102;-71
2022/09/11 02:38:19;;;;;;;0.20;0.20;;;;;;;11.47;100.00;101733.69;5054936;28;20039;-71
2022/09/11 02:41:02;;;;;;;0.20;0.20;;;;;;;11.40;100.00;101730.53;5015511;28;20041;-71
2022/09/11 02:43:41;;;;;;;0.30;0.30;;;;;;;11.44;100.00;101728.53;5049398;28;20040;-71
2022/09/11 02:46:42;;;;;;;0.20;0.20;;;;;;;11.45;100.00;101733.78;5056603;28;20024;-71
2022/09/11 02:49:32;;;;;;;0.30;0.30;;;;;;;11.43;100.00;101733.03;5059327;28;20075;-70
2022/09/11 02:52:29;;;;;;;0.10;0.10;;;;;;;11.38;100.00;101732.50;5062248;28;20490;-71
2022/09/11 02:55:15;;;;;;;0.82;0.82;;;;;;;11.32;100.00;101733.75;5062931;28;20020;-70
2022/09/11 02:57:49;;;;;;;0.10;0.10;;;;;;;11.36;100.00;101735.28;5071435;28;20506;-71
2022/09/11 03:00:15;;;;;;;0.15;0.15;;;;;;;11.22;100.00;101717.38;5063850;28;20345;-70
2022/09/11 03:02:41;;;;;;;0.20;0.10;;;;;;;11.37;100.00;101744.22;5064527;28;20859;-71
2022/09/11 03:05:08;;;;;;;0.10;0.10;;;;;;;11.40;100.00;101750.25;5052850;28;20024;-71
2022/09/11 03:07:33;;;;;;;0.40;0.40;;;;;;;11.42;100.00;101744.75;5050720;28;20044;-71
2022/09/11 03:09:59;;;;;;;0.32;0.32;;;;;;;11.40;100.00;101752.03;5063617;28;20029;-71
2022/09/11 03:12:25;;;;;;;0.60;0.60;;;;;;;11.32;100.00;101749.03;5064505;28;20442;-70
2022/09/11 03:14:51;;;;;;;0.45;0.45;;;;;;;11.11;100.00;101728.00;5069873;28;20302;-71
2022/09/11 03:17:16;;;;;;;0.50;0.50;;;;;;;11.27;100.00;101751.16;5064505;28;20037;-71
2022/09/11 03:19:41;;;;;;;1.00;1.00;;;;;;;11.21;100.00;101730.94;5064934;28;20029;-70
2022/09/11 03:22:07;;;;;;;0.15;0.15;;;;;;;11.10;100.00;101726.25;5063586;28;20225;-70
2022/09/11 03:24:32;;;;;;;0.10;0.10;;;;;;;11.24;100.00;101753.06;5064003;28;20028;-71
2022/09/11 03:26:58;;;;;;;0.17;0.17;;;;;;;11.11;100.00;101722.63;5063341;28;20034;-71
2022/09/11 03:29:23;;;;;;;0.10;0.10;;;;;;;11.26;100.00;101731.47;5065909;28;20569;-70
2022/09/11 03:31:48;;;;;;;0.00;0.00;;;;;;;11.04;100.00;101692.56;5062884;28;20084;-71
2022/09/11 03:34:14;;;;;;;0.10;0.10;;;;;;;11.31;100.00;101736.56;5059748;28;20029;-71
2022/09/11 03:36:39;;;;;;;0.10;0.10;;;;;;;11.28;100.00;101729.53;5066060;28;20016;-71
2022/09/11 03:39:05;;;;;;;0.10;0.10;;;;;;;11.46;100.00;101756.19;5065572;28;20114;-71
2022/09/11 03:41:30;;;;;;;0.20;0.20;;;;;;;11.36;100.00;101764.00;5065951;28;20032;-70
2022/09/11 03:43:55;;;;;;;0.10;0.10;;;;;;;11.28;100.00;101751.03;5062710;28;20028;-71
2022/09/11 03:46:21;;;;;;;0.57;0.57;;;;;;;11.07;100.00;101724.63;5057312;28;20052;-70
2022/09/11 03:48:46;;;;;;;0.30;0.30;;;;;;;11.27;100.00;101748.47;5062448;28;20032;-70
2022/09/11 03:51:13;;;;;;;0.30;0.30;;;;;;;11.13;100.00;101720.66;5055871;28;20028;-70
2022/09/11 03:53:39;;;;;;;0.20;0.20;;;;;;;11.36;100.00;101755.94;5063722;28;20024;-70
2022/09/11 03:56:05;;;;;;;0.20;0.20;;;;;;;11.33;100.00;101750.75;5059028;28;20033;-71
2022/09/11 03:58:30;;;;;;;0.10;0.10;;;;;;;11.39;100.00;101761.97;5064250;28;20028;-71
2022/09/11 04:00:56;;;;;;;0.20;0.20;;;;;;;11.33;100.00;101754.28;5061846;28;20056;-71
2022/09/11 04:03:21;;;;;;;0.10;0.10;;;;;;;11.41;100.00;101772.59;5062755;28;20044;-70
2022/09/11 04:06:16;;;;;;;0.28;0.28;;;;;;;11.41;100.00;101767.22;5058822;28;20027;-71
2022/09/11 04:08:41;;;;;;;;;;;;;;;11.43;100.00;101767.97;5054879;28;20048;-70
2022/09/11 04:11:07;;;;;;;0.30;0.30;;;;;;;11.29;100.00;101733.09;5066732;28;19962;-70
2022/09/11 04:13:34;;;;;;;0.30;0.30;;;;;;;11.55;100.00;101771.66;5067144;28;20530;-70
2022/09/11 04:16:01;;;;;;;0.57;0.40;;;;;;;11.45;100.00;101757.13;5064082;28;20023;-70
2022/09/11 04:18:27;;;;;;;0.32;0.32;;;;;;;11.54;100.00;101768.13;5071788;28;20039;-70
2022/09/11 04:20:53;;;;;;;0.25;0.25;;;;;;;11.59;100.00;101766.97;5063268;28;20028;-70
2022/09/11 04:23:18;;;;;;;0.30;0.30;;;;;;;11.57;100.00;101775.13;5065653;28;20479;-70
2022/09/11 04:25:43;;;;;;;0.30;0.30;;;;;;;11.60;100.00;101774.91;5065561;28;20141;-70
2022/09/11 04:28:09;;;;;;;0.30;0.30;;;;;;;11.47;100.00;101753.38;5060319;28;20438;-71
2022/09/11 04:30:37;;;;;;;0.20;0.20;;;;;;;11.69;100.00;101784.19;5064441;28;20470;-70
2022/09/11 04:33:03;;;;;;;0.20;0.20;;;;;;;11.66;100.00;101763.75;5065298;28;20066;-70
2022/09/11 04:35:28;;;;;;;0.10;0.10;;;;;;;11.60;100.00;101745.34;5062791;28;20072;-70
2022/09/11 04:37:54;;;;;;;0.20;0.20;;;;;;;11.77;100.00;101765.72;5062286;28;20039;-70
2022/09/11 04:40:20;;;;;;;0.10;0.10;;;;;;;11.82;100.00;101770.75;5066070;28;20032;-70
2022/09/11 04:42:45;;;;;;;0.10;0.10;;;;;;;11.86;100.00;101772.28;5062110;28;20369;-70
2022/09/11 04:45:11;;;;;;;0.05;0.05;;;;;;;11.70;100.00;101746.44;5064132;28;20086;-70
2022/09/11 04:47:36;;;;;;;0.10;0.10;;;;;;;11.84;100.00;101775.09;5060270;28;20025;-71
2022/09/11 04:50:01;;;;;;;0.10;0.10;;;;;;;11.78;100.00;101763.91;5064168;28;20036;-70
2022/09/11 04:52:27;;;;;;;0.10;0.10;;;;;;;11.72;100.00;101750.84;5058863;28;20036;-71
2022/09/11 04:54:52;;;;;;;0.17;0.17;;;;;;;11.79;100.00;101763.78;5054695;28;20059;-70
2022/09/11 04:57:17;;;;;;;0.10;0.10;;;;;;;11.49;100.00;101723.69;5061544;28;20032;-70
2022/09/11 04:59:42;;;;;;;0.10;0.10;;;;;;;11.60;100.00;101747.19;5059431;28;20479;-70
2022/09/11 05:02:08;;;;;;;0.40;0.40;;;;;;;11.66;100.00;101760.19;5028040;28;20152;-70
2022/09/11 05:04:33;;;;;;;0.10;0.10;;;;;;;11.61;100.00;101754.28;5051799;28;20031;-70
2022/09/11 05:06:58;;;;;;;0.20;0.20;;;;;;;11.66;100.00;101768.25;5054421;28;20032;-70
2022/09/11 05:09:24;;;;;;;0.10;0.10;;;;;;;11.55;100.00;101761.78;5065627;28;20031;-70
2022/09/11 05:11:50;;;;;;;0.10;0.10;;;;;;;11.60;100.00;101764.16;5064569;28;20063;-70
2022/09/11 05:14:15;;;;;;;0.10;0.10;;;;;;;11.54;100.00;101756.50;5052717;28;20292;-70
2022/09/11 05:16:42;;;;;;;0.10;0.10;;;;;;;11.65;100.00;101778.16;5067589;28;20032;-70
2022/09/11 05:19:07;;;;;;;0.17;0.17;;;;;;;11.68;100.00;101788.72;5044683;28;20033;-70
2022/09/11 05:21:33;;;;;;;0.10;0.10;;;;;;;11.65;100.00;101788.94;5045358;28;20043;-70
2022/09/11 05:24:00;;;;;;;0.10;0.10;;;;;;;11.62;100.00;101794.50;5061072;28;20444;-70
2022/09/11 05:26:31;;;;;;;0.10;0.10;;;;;;;11.55;100.00;101788.69;5039839;28;20445;-70
2022/09/11 05:29:02;;;;;;;0.00;0.00;;;;;;;11.60;100.00;101804.50;5065009;28;20024;-70
2022/09/11 05:31:28;;;;;;;0.10;0.10;;;;;;;11.52;100.00;101794.28;5062293;28;20039;-70
2022/09/11 05:33:54;;;;;;;0.10;0.10;;;;;;;11.63;100.00;101809.69;5055370;28;20024;-70
2022/09/11 05:36:20;;;;;;;0.10;0.10;;;;;;;11.65;100.00;101814.97;5044336;28;20037;-70
2022/09/11 05:38:46;;;;;;;0.00;0.00;;;;;;;11.67;100.00;101819.28;5043485;28;20332;-70
2022/09/11 05:41:12;;;;;;;0.03;0.03;;;;;;;11.66;100.00;101820.25;5063694;28;20123;-70
2022/09/11 05:43:38;;;;;;;0.10;0.10;;;;;;;11.59;100.00;101812.69;5059934;28;20035;-70
2022/09/11 05:46:04;;;;;;;0.10;0.10;;;;;;;11.67;100.00;101821.09;5061400;28;20372;-70
2022/09/11 05:48:30;;;;;;;0.20;0.10;;;;;;;11.73;100.00;101833.28;5060906;28;20043;-70
2022/09/11 05:51:08;;;;;;;0.10;0.10;;;;;;;11.78;100.00;101828.47;5058979;28;20025;-70
2022/09/11 05:53:34;;;;;;;0.20;0.20;;;;;;;11.70;100.00;101813.69;5059240;28;20017;-70
2022/09/11 05:56:14;;;;;;;0.10;0.10;;;;;;;11.86;100.00;101836.88;5061638;28;20029;-70
2022/09/11 05:58:40;;;;;;;0.20;0.20;;;;;;;11.77;100.00;101810.59;5059569;28;20025;-70
2022/09/11 06:01:11;;;;;;;0.10;0.10;;;;;;;11.92;100.00;101832.91;5059715;28;20038;-70
2022/09/11 06:03:37;;;;;;;0.10;0.10;;;;;;;11.69;100.00;101792.25;5058358;28;20025;-70
2022/09/11 06:06:05;;;;;;;0.10;0.10;;;;;;;12.07;100.00;101847.16;5058229;28;20032;-70
2022/09/11 06:08:30;;;;;;;0.10;0.10;;;;;;;12.00;100.00;101847.59;5060268;28;20554;-70
2022/09/11 06:10:57;;;;;;;0.10;0.10;;;;;;;11.91;100.00;101836.56;5058398;28;20043;-70
2022/09/11 06:13:23;;;;;;;0.10;0.10;;;;;;;11.92;100.00;101833.78;5057168;28;20028;-70
2022/09/11 06:15:48;;;;;;;0.10;0.10;;;;;;;12.24;100.00;101871.13;5060709;28;20047;-70
2022/09/11 06:18:14;;;;;;;0.00;0.00;;;;;;;12.25;100.00;101858.50;5058706;28;20470;-70
2022/09/11 06:20:40;;;;;;;0.10;0.10;;;;;;;12.37;100.00;101871.13;5058704;28;20024;-70
2022/09/11 06:23:07;;;;;;;0.17;0.17;;;;;;;12.27;100.00;101860.16;5054941;28;21061;-70
2022/09/11 06:25:32;;;;;;;0.20;0.20;;;;;;;12.33;100.00;101866.94;5057926;28;20135;-70
2022/09/11 06:27:57;;;;;;;0.22;0.22;;;;;;;12.37;100.00;101863.06;5059805;28;20109;-70
2022/09/11 06:30:23;;;;;;;0.20;0.20;;;;;;;12.25;100.00;101832.47;5060172;28;20033;-70
2022/09/11 06:32:48;;;;;;;0.10;0.10;;;;;;;12.35;100.00;101823.72;5046651;28;20037;-70
2022/09/11 06:35:14;;;;;;;0.20;0.20;;;;;;;12.56;100.00;101841.09;5055694;28;20491;-70
2022/09/11 06:37:39;;;;;;;0.20;0.20;;;;;;;12.66;100.00;101867.38;5060797;28;20068;-70
2022/09/11 06:40:05;;;;;;;0.40;0.40;;;;;;;12.67;100.00;101858.31;5054883;28;20039;-70
2022/09/11 06:42:30;;;;;;;0.25;0.25;;;;;;;12.71;100.00;101851.75;5049810;28;20036;-70
2022/09/11 06:44:56;;;;;;;0.30;0.30;;;;;;;12.76;100.00;101852.28;5057061;28;21210;-70
2022/09/11 06:47:21;;;;;;;0.25;0.25;;;;;;;12.73;100.00;101844.41;5055592;28;20036;-70
2022/09/11 06:49:47;;;;;;;0.20;0.20;;;;;;;13.01;100.00;101872.09;5052073;28;20035;-70
2022/09/11 06:52:12;;;;;;;0.38;0.38;;;;;;;13.19;100.00;101883.41;5057874;28;20036;-70
2022/09/11 06:54:37;;;;;;;0.40;0.40;;;;;;;13.06;100.00;101861.84;5061275;28;20075;-70
2022/09/11 06:57:03;;;;;;;0.40;0.40;;;;;;;12.99;100.00;101844.38;5052684;28;20328;-70
2022/09/11 06:59:28;;;;;;;0.30;0.30;;;;;;;13.20;100.00;101863.53;5057589;28;20043;-69
2022/09/11 07:01:54;;;;;;;0.65;0.65;;;;;;;13.26;100.00;101870.31;5056535;28;20032;-69
2022/09/11 07:04:19;;;;;;;0.43;0.43;;;;;;;13.39;100.00;101875.69;5060808;28;20060;-69
2022/09/11 07:06:45;;;;;;;0.45;0.45;;;;;;;13.34;100.00;101867.94;5062797;28;20456;-69
2022/09/11 07:09:11;;;;;;;0.32;0.32;;;;;;;13.44;100.00;101878.94;5063078;28;20103;-70
2022/09/11 07:11:37;;;;;;;0.20;0.20;;;;;;;13.63;100.00;101889.22;5066658;28;20024;-69
2022/09/11 07:14:04;;;;;;;0.50;0.50;;;;;;;13.78;100.00;101889.91;5060622;28;20037;-69
2022/09/11 07:16:30;;;;;;;0.43;0.43;;;;;;;13.75;100.00;101885.59;5065014;28;20031;-69
2022/09/11 07:18:56;;;;;;;0.20;0.20;;;;;;;13.72;100.00;101872.34;5066186;28;20483;-69
2022/09/11 07:21:24;;;;;;;0.60;0.60;;;;;;;13.73;100.00;101890.25;5060317;28;20556;-69
2022/09/11 07:23:54;;;;;;;0.40;0.40;;;;;;;13.71;100.00;101883.25;5041326;28;20131;-70
2022/09/11 07:26:21;;;;;;;0.20;0.20;;;;;;;13.89;100.00;101892.66;5058648;28;20396;-69
2022/09/11 07:28:49;;;;;;;0.20;0.20;;;;;;;13.79;100.00;101851.13;5065122;28;20021;-69
2022/09/11 07:31:27;;;;;;;0.30;0.30;;;;;;;14.04;100.00;101890.66;5061545;28;20036;-69
2022/09/11 07:33:53;;;;;;;0.40;0.40;;;;;;;13.94;100.00;101877.00;5043300;28;20408;-69
2022/09/11 07:36:23;;;;;;;0.40;0.40;;;;;;;14.00;100.00;101889.16;5063880;28;20028;-69
2022/09/11 07:38:49;;;;;;;0.20;0.20;;;;;;;14.22;100.00;101887.50;5058722;28;20033;-69
2022/09/11 07:41:16;;;;;;;0.50;0.50;;;;;;;14.17;100.00;101897.81;5056426;28;20040;-69
2022/09/11 07:43:44;;;;;;;0.22;0.22;;;;;;;14.29;100.00;101894.16;5055213;28;20016;-68
2022/09/11 07:46:10;;;;;;;0.20;0.20;;;;;;;14.44;100.00;101896.66;5051574;28;20060;-70
2022/09/11 07:48:35;;;;;;;0.10;0.10;;;;;;;14.36;100.00;101875.63;5056686;28;20760;-69
2022/09/11 07:51:03;;;;;;;0.38;0.38;;;;;;;14.55;100.00;101902.09;5053458;28;20036;-71
2022/09/11 07:53:38;;;;;;;0.20;0.20;;;;;;;14.67;100.00;101914.66;5052117;28;20155;-68
2022/09/11 07:56:06;;;;;;;0.10;0.10;;;;;;;14.83;100.00;101910.78;5055502;28;20025;-69
2022/09/11 07:58:33;;;;;;;0.15;0.15;;;;;;;14.87;100.00;101912.25;5054820;28;20146;-69
2022/09/11 08:00:59;;;;;;;0.55;0.55;;;;;;;14.79;100.00;101918.28;5052566;28;20158;-69
2022/09/11 08:03:24;;;;;;;0.47;0.47;;;;;;;14.44;100.00;101875.03;5055399;28;20028;-69
2022/09/11 08:05:49;;;;;;;0.40;0.40;;;;;;;14.65;100.00;101915.75;5051253;28;20028;-69
2022/09/11 08:08:15;;;;;;;0.70;0.70;;;;;;;14.54;100.00;101903.06;5051404;28;20044;-69
2022/09/11 08:10:40;;;;;;;0.20;0.20;;;;;;;14.78;100.00;101919.25;5052486;28;20052;-69
2022/09/11 08:13:05;;;;;;;0.70;0.70;;;;;;;14.89;100.00;101922.94;5051876;28;20042;-69
2022/09/11 08:15:31;;;;;;;0.43;0.43;;;;;;;14.91;100.00;101919.16;5054498;28;20016;-71
2022/09/11 08:17:56;;;;;;;0.30;0.30;;;;;;;15.00;100.00;101926.50;5051866;28;20778;-73
2022/09/11 08:20:21;;;;;;;0.20;0.20;;;;;;;15.33;100.00;101932.06;5053631;28;20143;-69
2022/09/11 08:22:47;;;;;;;0.10;0.10;;;;;;;15.68;100.00;101936.41;5053358;28;20035;-70
2022/09/11 08:25:12;;;;;;;0.20;0.20;;;;;;;15.84;100.00;101936.00;5051864;28;20035;-70
2022/09/11 08:27:38;;;;;;;0.20;0.20;;;;;;;15.78;100.00;101935.66;5061367;28;20466;-69
2022/09/11 08:30:03;;;;;;;0.20;0.20;;;;;;;15.76;100.00;101938.47;5064947;28;20034;-70
2022/09/11 08:32:28;;;;;;;0.20;0.20;;;;;;;15.60;100.00;101937.06;5057618;28;20028;-70
2022/09/11 08:34:54;;;;;;;0.30;0.30;;;;;;;15.62;100.00;101941.47;5037027;28;20411;-70
2022/09/11 08:37:19;;;;;;;0.10;0.10;;;;;;;15.46;100.00;101904.88;5052708;28;20437;-70
2022/09/11 08:39:45;;;;;;;0.20;0.20;;;;;;;15.70;100.00;101937.16;5049210;28;20888;-70
2022/09/11 08:42:14;;;;;;;0.13;0.13;;;;;;;15.74;100.00;101937.78;5049623;28;20496;-70
2022/09/11 08:44:52;;;;;;;0.10;0.10;;;;;;;15.95;100.00;101926.19;5054182;28;20108;-67
2022/09/11 08:47:23;;;;;;;0.10;0.10;;;;;;;16.31;100.00;101946.59;5037653;28;20068;-66
2022/09/11 08:50:02;;;;;;;0.20;0.20;;;;;;;16.49;100.00;101952.28;5045950;28;20467;-69
2022/09/11 08:52:28;;;;;;;0.10;0.10;;;;;;;16.87;100.00;101949.09;5053581;28;20033;-71
2022/09/11 08:54:56;;;;;;;0.10;0.10;;;;;;;16.94;100.00;101953.00;5047106;28;20078;-73
2022/09/11 08:57:30;;;;;;;0.10;0.10;;;;;;;17.28;100.00;101946.47;5045404;28;20567;-72
2022/09/11 09:00:11;;;;;;;0.10;0.10;;;;;;;17.54;100.00;101953.13;5049488;28;20032;-70
2022/09/11 09:03:05;;;;;;;0.10;0.10;;;;;;;17.81;100.00;101954.34;5054008;28;20124;-70
2022/09/11 09:05:53;;;;;;;0.10;0.10;;;;;;;17.81;100.00;101959.78;5048260;28;20032;-72
2022/09/11 09:08:33;;;;;;;0.10;0.10;;;;;;;17.78;100.00;101956.50;5051715;28;20056;-71
2022/09/11 09:11:02;;;;;;;0.10;0.10;;;;;;;17.61;100.00;101953.44;5053115;28;20024;-70
2022/09/11 09:13:58;;;;;;;0.10;0.10;;;;;;;17.79;100.00;101952.78;5056876;28;20189;-71
2022/09/11 09:16:53;;;;;;;0.10;0.10;;;;;;;17.86;100.00;101953.06;5062791;28;20115;-69
2022/09/11 09:19:24;;;;;;;0.10;0.10;;;;;;;17.56;100.00;101954.84;5060598;28;20044;-70
2022/09/11 09:22:13;;;;;;;0.10;0.10;;;;;;;17.55;100.00;101956.72;5072955;28;20408;-70
2022/09/11 09:24:46;;;;;;;0.10;0.10;;;;;;;17.43;100.00;101961.41;5061852;28;20025;-70
2022/09/11 09:27:19;;;;;;;0.00;0.00;;;;;;;17.43;100.00;101968.66;5055435;28;20036;-70
2022/09/11 09:29:46;;;;;;;0.00;0.00;;;;;;;17.26;100.00;101968.34;5069377;28;20036;-70
2022/09/11 09:32:14;;;;;;;0.10;0.10;;;;;;;17.54;100.00;101964.00;5061791;28;20453;-71
2022/09/11 09:34:42;;;;;;;0.10;0.10;;;;;;;17.84;100.00;101959.50;5054498;28;20036;-70
2022/09/11 09:37:14;;;;;;;0.00;0.00;;;;;;;17.89;100.00;101971.81;5060397;28;20142;-71
2022/09/11 09:39:40;;;;;;;0.10;0.10;;;;;;;17.77;100.00;101971.06;5056198;28;20744;-71
2022/09/11 09:42:29;;;;;;;0.05;0.05;;;;;;;18.09;100.00;101973.56;5058121;28;20124;-70
2022/09/11 09:45:18;;;;;;;0.10;0.10;;;;;;;18.77;100.00;101976.44;5056160;28;20040;-71
2022/09/11 09:47:43;;;;;;;0.10;0.10;;;;;;;19.05;96.89;101943.88;5058051;28;20040;-70
2022/09/11 09:50:37;;;;;;;0.00;0.00;;;;;;;19.25;95.06;101972.72;5059798;28;20029;-70
2022/09/11 09:53:11;;;;;;;0.00;0.00;;;;;;;19.49;96.86;101974.06;5061398;28;20058;-70
2022/09/11 09:55:40;;;;;;;0.00;0.00;;;;;;;19.88;99.45;101970.28;5058373;28;20417;-71
2022/09/11 09:58:06;;;;;;;0.00;0.00;;;;;;;20.18;89.63;101968.19;5063270;28;20043;-71
2022/09/11 10:00:35;;;;;;;0.00;0.00;;;;;;;20.21;90.00;101976.06;5069963;28;20028;-70
2022/09/11 10:03:16;;;;;;;0.00;0.00;;;;;;;20.12;89.34;101971.53;5060207;28;20046;-71
2022/09/11 10:05:43;;;;;;;0.00;0.00;;;;;;;19.99;90.76;101971.94;5059008;28;20480;-72
2022/09/11 10:08:30;;;;;;;0.00;0.00;;;;;;;19.74;91.03;101971.63;5071218;28;20036;-72
2022/09/11 10:11:01;;;;;;;0.00;0.00;;;;;;;19.63;88.79;101968.09;5063955;28;20040;-71
2022/09/11 10:13:28;;;;;;;0.00;0.00;;;;;;;19.52;90.41;101972.88;5071792;28;20020;-72
2022/09/11 10:15:59;;;;;;;0.00;0.00;;;;;;;19.41;92.32;101979.38;5062232;28;20062;-71
2022/09/11 10:18:45;;;;;;;0.00;0.00;;;;;;;19.36;90.84;101971.69;5065300;28;20103;-71
2022/09/11 10:21:10;;;;;;;0.03;0.00;;;;;;;19.46;90.94;101980.69;5060789;28;20025;-71
2022/09/11 10:24:08;;;;;;;0.00;0.00;;;;;;;19.70;88.93;101975.66;5065217;28;20680;-71
2022/09/11 10:26:37;;;;;;;0.00;0.00;;;;;;;20.30;86.27;101980.56;5052718;28;20032;-71
2022/09/11 10:29:11;;;;;;;0.00;0.00;;;;;;;20.89;86.87;101979.22;5066577;28;20518;-71
2022/09/11 10:31:48;;;;;;;0.00;0.00;;;;;;;21.30;83.51;101979.44;5066735;28;20036;-71
2022/09/11 10:34:15;;;;;;;0.00;0.00;;;;;;;21.81;80.89;101979.50;5057615;28;20024;-71
2022/09/11 10:36:51;;;;;;;0.00;0.00;;;;;;;22.40;78.88;101977.72;5061751;28;20307;-70
2022/09/11 10:39:18;;;;;;;0.00;0.00;;;;;;;22.87;75.01;101978.94;5067365;28;20024;-71
2022/09/11 10:41:48;;;;;;;0.00;0.00;;;;;;;22.80;72.06;101976.00;5065388;28;20802;-71
2022/09/11 10:44:14;;;;;;;0.00;0.00;;;;;;;22.80;72.24;101978.75;5057597;28;20066;-72
2022/09/11 10:46:41;;;;;;;0.00;0.00;;;;;;;22.22;74.31;101972.41;5059673;28;20021;-71
2022/09/11 10:49:15;;;;;;;0.00;0.00;;;;;;;22.92;74.21;101976.50;5063928;28;20042;-71
2022/09/11 10:51:41;;;;;;;0.00;0.00;;;;;;;23.20;68.50;101956.91;5059622;28;20208;-72
2022/09/11 10:54:29;;;;;;;0.00;0.00;;;;;;;22.79;68.57;101971.56;5059728;28;20034;-71
2022/09/11 10:57:04;;;;;;;0.00;0.00;;;;;;;22.83;69.97;101966.59;5063440;28;20382;-72
2022/09/11 10:59:39;;;;;;;0.00;0.00;;;;;;;23.25;67.45;101964.66;5062375;28;20024;-70
2022/09/11 11:02:16;;;;;;;0.00;0.00;;;;;;;23.89;66.55;101947.19;5058674;28;20050;-71
2022/09/11 11:04:42;;;;;;;0.00;0.00;;;;;;;24.37;65.12;101969.00;5056146;28;20483;-71
2022/09/11 11:07:22;;;;;;;0.00;0.00;;;;;;;23.98;65.93;101961.72;5060628;28;20048;-70
2022/09/11 11:10:12;;;;;;;0.00;0.00;;;;;;;23.25;65.56;101970.13;5058814;28;20035;-70
2022/09/11 11:13:03;;;;;;;0.00;0.00;;;;;;;23.17;64.63;101971.81;5060307;28;20070;-71
2022/09/11 11:15:59;;;;;;;0.05;0.05;;;;;;;23.59;63.02;101961.59;5060058;28;20028;-70
2022/09/11 11:18:58;;;;;;;0.00;0.00;;;;;;;24.03;66.22;101940.09;5066587;28;20036;-70
2022/09/11 11:21:37;;;;;;;0.00;0.00;;;;;;;24.88;59.73;101975.78;5058670;28;20028;-71
2022/09/11 11:24:14;;;;;;;0.00;0.00;;;;;;;25.41;54.33;101971.03;5066284;28;20032;-70
2022/09/11 11:27:02;;;;;;;0.08;0.08;;;;;;;25.16;55.97;101967.75;5053778;28;20082;-70
2022/09/11 11:29:49;;;;;;;0.00;0.00;;;;;;;26.20;50.94;101974.97;5058675;28;20033;-70
2022/09/11 11:32:26;;;;;;;0.00;0.00;;;;;;;26.98;51.74;101970.56;5062690;28;20024;-70
2022/09/11 11:35:07;;;;;;;0.00;0.00;;;;;;;27.00;48.63;101962.94;5058856;28;20034;-70